createdAt,value
2019-03-11T00:01:07.665Z,1.22
2019-03-11T00:03:44.735Z,1.47
2019-03-11T00:06:18.986Z,1.33
2019-03-11T00:08:58.939Z,1.23
2019-03-11T00:11:29.628Z,1.80
2019-03-11T00:14:03.743Z,1.75
2019-03-11T00:16:43.338Z,1.20
2019-03-11T00:19:19.090Z,1.17
2019-03-11T00:21:55.369Z,1.37
2019-03-11T00:24:30.432Z,2.05
2019-03-11T00:27:06.509Z,2.03
2019-03-11T00:29:49.338Z,1.50
2019-03-11T00:32:27.152Z,1.23
2019-03-11T00:35:05.447Z,1.80
2019-03-11T00:37:53.884Z,1.80
2019-03-11T00:40:35.339Z,1.80
2019-03-11T00:43:15.263Z,3.80
2019-03-11T00:45:47.188Z,3.00
2019-03-11T00:48:31.297Z,2.23
2019-03-11T00:51:03.508Z,2.40
2019-03-11T00:53:41.807Z,2.13
2019-03-11T00:56:17.075Z,2.10
2019-03-11T00:58:53.314Z,2.20
2019-03-11T01:01:31.014Z,2.43
2019-03-11T01:04:06.601Z,2.33
2019-03-11T01:06:56.117Z,2.37
2019-03-11T01:09:38.011Z,2.30
2019-03-11T01:12:16.179Z,1.97
2019-03-11T01:14:55.639Z,2.00
2019-03-11T01:17:40.254Z,2.30
2019-03-11T01:20:16.316Z,2.50
2019-03-11T01:22:55.375Z,2.17
2019-03-11T01:25:29.468Z,2.33
2019-03-11T01:28:07.477Z,2.20
2019-03-11T01:30:46.039Z,2.27
2019-03-11T01:33:29.448Z,1.90
2019-03-11T01:36:09.713Z,1.90
2019-03-11T01:38:53.419Z,2.87
2019-03-11T01:41:33.493Z,2.30
2019-03-11T01:44:12.857Z,1.97
2019-03-11T01:46:47.078Z,1.63
2019-03-11T01:49:36.220Z,2.05
2019-03-11T01:52:19.504Z,1.17
2019-03-11T01:54:55.565Z,1.20
2019-03-11T01:57:28.881Z,1.03
2019-03-11T02:00:13.825Z,1.20
2019-03-11T02:02:47.025Z,1.40
2019-03-11T02:05:23.481Z,1.20
2019-03-11T02:08:02.961Z,1.27
2019-03-11T02:10:49.621Z,2.10
2019-03-11T02:13:25.397Z,1.03
2019-03-11T02:15:59.059Z,1.10
2019-03-11T02:18:31.739Z,1.02
2019-03-11T02:21:09.902Z,0.90
2019-03-11T02:23:44.347Z,1.30
2019-03-11T02:26:21.294Z,1.20
2019-03-11T02:29:02.775Z,1.07
2019-03-11T02:31:50.451Z,1.07
2019-03-11T02:34:25.860Z,1.30
2019-03-11T02:36:56.662Z,1.30
2019-03-11T02:39:27.734Z,0.97
2019-03-11T02:41:56.555Z,1.10
2019-03-11T02:44:25.661Z,1.20
2019-03-11T02:46:54.732Z,1.00
2019-03-11T02:49:23.847Z,1.00
2019-03-11T02:51:52.623Z,1.33
2019-03-11T02:54:21.435Z,0.80
2019-03-11T02:56:51.455Z,1.80
2019-03-11T02:59:20.271Z,1.53
2019-03-11T03:02:18.436Z,1.03
2019-03-11T03:04:51.187Z,1.57
2019-03-11T03:07:20.008Z,1.03
2019-03-11T03:09:48.883Z,1.22
2019-03-11T03:12:17.635Z,0.80
2019-03-11T03:14:46.355Z,1.00
2019-03-11T03:17:15.115Z,1.00
2019-03-11T03:19:43.879Z,1.40
2019-03-11T03:22:12.629Z,1.13
2019-03-11T03:24:41.355Z,1.57
2019-03-11T03:27:10.154Z,0.93
2019-03-11T03:29:38.950Z,1.07
2019-03-11T03:32:07.672Z,1.33
2019-03-11T03:34:36.687Z,1.27
2019-03-11T03:37:05.495Z,1.37
2019-03-11T03:39:35.715Z,1.57
2019-03-11T03:42:04.795Z,1.90
2019-03-11T03:44:34.121Z,2.20
2019-03-11T03:47:02.846Z,2.60
2019-03-11T03:49:31.712Z,2.53
2019-03-11T03:52:00.762Z,3.80
2019-03-11T03:54:29.503Z,2.80
2019-03-11T03:56:58.225Z,3.47
2019-03-11T03:59:26.986Z,4.28
2019-03-11T04:01:55.800Z,3.90
2019-03-11T04:04:24.789Z,3.93
2019-03-11T04:06:53.535Z,4.07
2019-03-11T04:09:22.287Z,4.70
2019-03-11T04:11:51.037Z,4.50
2019-03-11T04:14:19.866Z,3.80
2019-03-11T04:16:48.635Z,4.43
2019-03-11T04:19:17.723Z,4.30
2019-03-11T04:21:46.626Z,4.37
2019-03-11T04:24:17.392Z,5.13
2019-03-11T04:26:53.312Z,4.17
2019-03-11T04:29:22.458Z,4.83
2019-03-11T04:31:51.464Z,4.30
2019-03-11T04:34:20.463Z,4.80
2019-03-11T04:36:49.191Z,4.50
2019-03-11T04:39:18.202Z,4.50
2019-03-11T04:41:47.206Z,4.10
2019-03-11T04:44:16.019Z,5.92
2019-03-11T04:46:44.986Z,4.70
2019-03-11T04:49:13.733Z,5.33
2019-03-11T04:51:45.526Z,6.43
2019-03-11T04:54:14.282Z,5.67
2019-03-11T04:56:45.899Z,4.80
2019-03-11T04:59:14.991Z,4.70
2019-03-11T05:01:43.737Z,4.40
2019-03-11T05:04:12.489Z,4.70
2019-03-11T05:06:41.551Z,6.23
2019-03-11T05:09:10.644Z,4.70
2019-03-11T05:11:39.908Z,4.78
2019-03-11T05:14:08.663Z,4.60
2019-03-11T05:16:37.666Z,5.07
2019-03-11T05:19:06.673Z,4.60
2019-03-11T05:21:35.433Z,4.80
2019-03-11T05:24:04.244Z,4.77
2019-03-11T05:26:33.005Z,4.53
2019-03-11T05:29:01.718Z,4.33
2019-03-11T05:31:30.488Z,4.50
2019-03-11T05:33:59.378Z,3.90
2019-03-11T05:36:28.109Z,3.60
2019-03-11T05:38:56.866Z,3.30
2019-03-11T05:41:25.867Z,3.90
2019-03-11T05:43:54.610Z,4.77
2019-03-11T05:46:23.650Z,3.17
2019-03-11T05:48:52.651Z,3.83
2019-03-11T05:51:31.014Z,3.00
2019-03-11T05:53:52.324Z,3.33
2019-03-11T05:56:21.055Z,4.30
2019-03-11T05:58:50.086Z,4.10
2019-03-11T06:01:20.040Z,5.03
2019-03-11T06:03:49.027Z,6.57
2019-03-11T06:06:17.774Z,4.43
2019-03-11T06:08:46.597Z,4.60
2019-03-11T06:11:15.618Z,4.37
2019-03-11T06:13:44.369Z,3.87
2019-03-11T06:16:13.094Z,3.90
2019-03-11T06:18:44.852Z,3.95
2019-03-11T06:21:36.370Z,3.60
2019-03-11T06:24:05.686Z,3.83
2019-03-11T06:26:34.497Z,4.70
2019-03-11T06:29:03.498Z,4.60
2019-03-11T06:31:32.258Z,4.03
2019-03-11T06:34:00.993Z,3.87
2019-03-11T06:36:29.825Z,4.20
2019-03-11T06:39:05.807Z,3.60
2019-03-11T06:41:29.674Z,3.73
2019-03-11T06:43:58.666Z,4.00
2019-03-11T06:46:27.551Z,4.23
2019-03-11T06:48:56.290Z,4.03
2019-03-11T06:51:25.296Z,4.28
2019-03-11T06:53:54.046Z,4.63
2019-03-11T06:56:23.290Z,4.03
2019-03-11T06:58:52.038Z,3.60
2019-03-11T07:01:20.788Z,3.80
2019-03-11T07:03:49.633Z,3.40
2019-03-11T07:06:18.379Z,3.47
2019-03-11T07:08:47.425Z,3.90
2019-03-11T07:11:16.218Z,3.62
2019-03-11T07:13:45.234Z,3.80
2019-03-11T07:16:14.294Z,4.53
2019-03-11T07:18:43.054Z,4.35
2019-03-11T07:21:11.800Z,4.13
2019-03-11T07:23:53.115Z,5.20
2019-03-11T07:26:21.894Z,4.10
2019-03-11T07:28:50.678Z,3.70
2019-03-11T07:31:19.549Z,4.00
2019-03-11T07:33:48.410Z,4.87
2019-03-11T07:36:17.432Z,4.50
2019-03-11T07:38:46.255Z,5.70
2019-03-11T07:41:15.007Z,4.97
2019-03-11T07:43:44.031Z,5.70
2019-03-11T07:46:12.886Z,4.23
2019-03-11T07:48:41.894Z,4.83
2019-03-11T07:51:11.646Z,5.03
2019-03-11T07:53:40.742Z,5.77
2019-03-11T07:56:09.534Z,4.60
2019-03-11T07:58:38.538Z,5.37
2019-03-11T08:01:07.516Z,5.87
2019-03-11T08:03:36.509Z,5.93
2019-03-11T08:06:17.802Z,6.20
2019-03-11T08:08:37.173Z,3.50
2019-03-11T08:11:06.218Z,4.60
2019-03-11T08:13:34.971Z,3.80
2019-03-11T08:16:03.730Z,5.00
2019-03-11T08:18:35.257Z,5.47
2019-03-11T08:21:03.218Z,4.50
2019-03-11T08:23:32.297Z,4.70
2019-03-11T08:26:01.347Z,8.48
2019-03-11T08:28:30.103Z,8.53
2019-03-11T08:30:58.907Z,6.83
2019-03-11T08:33:27.642Z,7.10
2019-03-11T08:35:56.394Z,6.40
2019-03-11T08:38:25.145Z,7.50
2019-03-11T08:40:53.899Z,6.27
2019-03-11T08:43:22.979Z,7.80
2019-03-11T08:45:51.737Z,9.00
2019-03-11T08:48:20.458Z,6.70
2019-03-11T08:50:49.242Z,8.13
2019-03-11T08:53:18.534Z,9.00
2019-03-11T08:55:47.574Z,6.43
2019-03-11T08:58:16.590Z,7.17
2019-03-11T09:00:45.361Z,6.97
2019-03-11T09:03:14.377Z,7.70
2019-03-11T09:05:43.125Z,7.40
2019-03-11T09:08:11.983Z,6.63
2019-03-11T09:10:40.758Z,4.60
2019-03-11T09:13:09.495Z,6.90
2019-03-11T09:15:38.249Z,6.22
2019-03-11T09:18:06.983Z,7.33
2019-03-11T09:20:35.978Z,5.87
2019-03-11T09:23:04.983Z,7.10
2019-03-11T09:25:33.698Z,6.70
2019-03-11T09:28:02.536Z,8.63
2019-03-11T09:30:31.310Z,8.20
2019-03-11T09:33:00.053Z,7.90
2019-03-11T09:35:28.792Z,6.73
2019-03-11T09:37:57.610Z,6.90
2019-03-11T09:40:26.612Z,6.50
2019-03-11T09:42:56.102Z,6.83
2019-03-11T09:45:24.986Z,5.60
2019-03-11T09:47:57.162Z,5.80
2019-03-11T09:50:25.932Z,6.37
2019-03-11T09:52:54.748Z,6.97
2019-03-11T09:55:23.817Z,6.83
2019-03-11T09:57:53.294Z,7.00
2019-03-11T10:00:22.474Z,7.60
2019-03-11T10:02:53.208Z,7.43
2019-03-11T10:05:22.081Z,7.40
2019-03-11T10:07:50.996Z,8.57
2019-03-11T10:10:20.243Z,7.90
2019-03-11T10:12:49.270Z,7.43
2019-03-11T10:15:20.843Z,8.47
2019-03-11T10:17:49.960Z,7.77
2019-03-11T10:20:19.146Z,6.90
2019-03-11T10:22:48.179Z,8.77
2019-03-11T10:25:17.206Z,7.93
2019-03-11T10:27:46.636Z,8.40
2019-03-11T10:30:16.456Z,9.70
2019-03-11T10:32:45.391Z,8.70
2019-03-11T10:35:30.651Z,9.45
2019-03-11T10:37:46.866Z,9.63
2019-03-11T10:40:20.190Z,10.82
2019-03-11T10:42:49.402Z,10.97
2019-03-11T10:45:26.594Z,11.00
2019-03-11T10:47:50.666Z,10.73
2019-03-11T10:50:20.148Z,9.80
2019-03-11T10:52:49.566Z,9.27
2019-03-11T10:55:18.462Z,8.33
2019-03-11T10:57:47.866Z,9.53
2019-03-11T11:00:19.768Z,8.13
2019-03-11T11:02:49.104Z,8.50
2019-03-11T11:05:18.207Z,7.30
2019-03-11T11:07:47.405Z,6.40
2019-03-11T11:10:16.963Z,7.20
2019-03-11T11:12:46.157Z,7.70
2019-03-11T11:15:16.971Z,7.80
2019-03-11T11:17:46.099Z,8.80
2019-03-11T11:20:16.129Z,8.67
2019-03-11T11:22:45.318Z,7.63
2019-03-11T11:25:16.130Z,9.33
2019-03-11T11:27:46.493Z,7.47
2019-03-11T11:30:17.801Z,8.05
2019-03-11T11:32:48.569Z,8.70
2019-03-11T11:35:17.967Z,8.50
2019-03-11T11:37:46.919Z,8.53
2019-03-11T11:40:18.170Z,7.43
2019-03-11T11:42:47.044Z,7.73
2019-03-11T11:45:17.593Z,6.90
2019-03-11T11:47:46.412Z,8.30
2019-03-11T11:50:19.891Z,5.40
2019-03-11T11:52:48.987Z,5.65
2019-03-11T11:55:17.981Z,6.00
2019-03-11T11:57:47.318Z,4.80
2019-03-11T12:00:19.733Z,6.10
2019-03-11T12:02:48.527Z,6.07
2019-03-11T12:05:17.906Z,5.33
2019-03-11T12:07:47.818Z,5.63
2019-03-11T12:10:17.454Z,4.50
2019-03-11T12:12:46.479Z,5.00
2019-03-11T12:15:15.368Z,4.07
2019-03-11T12:17:44.328Z,3.97
2019-03-11T12:20:16.038Z,4.17
2019-03-11T12:22:45.188Z,4.23
2019-03-11T12:25:15.274Z,3.72
2019-03-11T12:27:53.188Z,4.40
2019-03-11T12:30:19.026Z,4.47
2019-03-11T12:32:48.046Z,4.40
2019-03-11T12:35:17.645Z,5.23
2019-03-11T12:37:47.294Z,6.20
2019-03-11T12:40:16.230Z,6.07
2019-03-11T12:42:45.434Z,6.30
2019-03-11T12:45:14.622Z,5.90
2019-03-11T12:47:44.402Z,6.85
2019-03-11T12:50:15.050Z,7.10
2019-03-11T12:52:46.051Z,6.45
2019-03-11T12:55:15.096Z,7.10
2019-03-11T12:57:44.084Z,6.90
2019-03-11T13:00:15.729Z,6.77
2019-03-11T13:02:44.819Z,6.87
2019-03-11T13:05:14.561Z,6.37
2019-03-11T13:07:43.587Z,6.90
2019-03-11T13:10:14.449Z,5.80
2019-03-11T13:12:44.103Z,6.37
2019-03-11T13:15:14.793Z,5.67
2019-03-11T13:17:43.777Z,6.27
2019-03-11T13:20:15.653Z,5.65
2019-03-11T13:22:44.849Z,5.20
2019-03-11T13:25:14.176Z,3.55
2019-03-11T13:27:43.156Z,3.10
2019-03-11T13:30:12.734Z,2.93
2019-03-11T13:32:42.082Z,3.20
2019-03-11T13:35:11.176Z,3.03
2019-03-11T13:37:40.197Z,2.63
2019-03-11T13:40:09.452Z,2.10
2019-03-11T13:42:38.482Z,2.37
2019-03-11T13:45:07.680Z,3.63
2019-03-11T13:47:37.616Z,3.63
2019-03-11T13:50:06.881Z,3.57
2019-03-11T13:52:35.886Z,3.33
2019-03-11T13:55:10.207Z,3.80
2019-03-11T13:57:36.629Z,3.67
2019-03-11T14:00:06.203Z,3.57
2019-03-11T14:02:35.127Z,3.27
2019-03-11T14:05:04.474Z,4.40
2019-03-11T14:07:34.128Z,3.27
2019-03-11T14:10:03.173Z,2.60
2019-03-11T14:12:32.497Z,2.67
2019-03-11T14:15:01.490Z,2.42
2019-03-11T14:17:30.510Z,2.30
2019-03-11T14:19:59.376Z,2.60
2019-03-11T14:22:28.549Z,2.30
2019-03-11T14:24:57.480Z,2.00
2019-03-11T14:27:27.096Z,2.53
2019-03-11T14:29:55.894Z,2.47
2019-03-11T14:32:25.607Z,1.98
2019-03-11T14:34:54.802Z,2.43
2019-03-11T14:37:23.657Z,2.97
2019-03-11T14:39:53.247Z,2.57
2019-03-11T14:42:22.526Z,2.07
2019-03-11T14:44:51.681Z,2.60
2019-03-11T14:47:20.612Z,2.37
2019-03-11T14:49:49.944Z,2.83
2019-03-11T14:52:19.170Z,2.43
2019-03-11T14:54:48.585Z,2.80
2019-03-11T14:57:17.661Z,2.60
2019-03-11T14:59:46.679Z,2.97
2019-03-11T15:02:15.491Z,3.13
2019-03-11T15:04:44.235Z,2.60
2019-03-11T15:07:13.238Z,2.33
2019-03-11T15:09:51.053Z,2.53
2019-03-11T15:12:12.711Z,1.73
2019-03-11T15:14:41.949Z,1.60
2019-03-11T15:17:11.665Z,1.13
2019-03-11T15:19:41.053Z,1.47
2019-03-11T15:22:10.131Z,1.47
2019-03-11T15:24:38.960Z,2.30
2019-03-11T15:27:07.791Z,1.53
2019-03-11T15:29:36.607Z,1.27
2019-03-11T15:32:05.522Z,1.83
2019-03-11T15:34:34.350Z,1.97
2019-03-11T15:37:03.095Z,1.47
2019-03-11T15:39:31.904Z,1.10
2019-03-11T15:42:00.957Z,1.90
2019-03-11T15:44:29.763Z,1.40
2019-03-11T15:46:58.579Z,0.93
2019-03-11T15:49:28.156Z,1.23
2019-03-11T15:51:57.234Z,1.17
2019-03-11T15:54:26.315Z,1.23
2019-03-11T15:56:55.109Z,1.23
2019-03-11T15:59:23.867Z,1.13
2019-03-11T16:01:52.764Z,1.33
2019-03-11T16:04:21.776Z,1.10
2019-03-11T16:06:51.019Z,1.42
2019-03-11T16:09:20.103Z,1.60
2019-03-11T16:11:48.936Z,1.57
2019-03-11T16:14:17.946Z,1.37
2019-03-11T16:16:47.010Z,1.30
2019-03-11T16:19:15.815Z,1.50
2019-03-11T16:21:45.017Z,0.93
2019-03-11T16:24:14.014Z,0.95
2019-03-11T16:26:42.933Z,1.30
2019-03-11T16:29:11.909Z,1.30
2019-03-11T16:31:41.002Z,1.53
2019-03-11T16:34:10.638Z,1.33
2019-03-11T16:36:39.703Z,1.40
2019-03-11T16:39:10.691Z,1.27
2019-03-11T16:41:39.736Z,0.90
2019-03-11T16:44:08.741Z,1.13
2019-03-11T16:46:37.831Z,1.20
2019-03-11T16:49:06.617Z,1.43
2019-03-11T16:51:35.707Z,0.90
2019-03-11T16:54:05.046Z,1.47
2019-03-11T16:56:34.365Z,1.87
2019-03-11T16:59:03.293Z,1.37
2019-03-11T17:01:32.023Z,1.70
2019-03-11T17:04:00.791Z,1.43
2019-03-11T17:06:29.776Z,0.90
2019-03-11T17:08:58.798Z,1.20
2019-03-11T17:11:27.795Z,1.20
2019-03-11T17:13:56.871Z,1.43
2019-03-11T17:16:25.629Z,2.03
2019-03-11T17:18:54.631Z,0.87
2019-03-11T17:21:24.433Z,1.30
2019-03-11T17:23:53.628Z,1.70
2019-03-11T17:26:40.234Z,1.10
2019-03-11T17:28:57.266Z,2.08
2019-03-11T17:31:26.331Z,1.40
2019-03-11T17:33:55.532Z,1.60
2019-03-11T17:36:24.898Z,1.37
2019-03-11T17:38:54.207Z,1.60
2019-03-11T17:41:23.267Z,1.30
2019-03-11T17:43:52.668Z,1.73
2019-03-11T17:46:21.959Z,3.53
2019-03-11T17:48:51.052Z,1.63
2019-03-11T17:51:19.995Z,2.50
2019-03-11T17:53:49.782Z,2.17
2019-03-11T17:56:19.479Z,2.50
2019-03-11T17:58:48.957Z,1.92
2019-03-11T18:01:18.363Z,1.57
2019-03-11T18:03:47.220Z,1.60
2019-03-11T18:06:16.037Z,2.70
2019-03-11T18:08:45.090Z,1.00
2019-03-11T18:11:14.473Z,1.40
2019-03-11T18:13:43.221Z,3.23
2019-03-11T18:16:12.046Z,1.60
2019-03-11T18:18:40.890Z,1.30
2019-03-11T18:21:09.959Z,1.50
2019-03-11T18:23:38.823Z,1.50
2019-03-11T18:26:08.183Z,1.50
2019-03-11T18:28:37.018Z,1.50
2019-03-11T18:31:06.788Z,2.20
2019-03-11T18:33:35.851Z,1.60
2019-03-11T18:36:07.411Z,1.73
2019-03-11T18:38:35.325Z,1.98
2019-03-11T18:41:04.431Z,5.77
2019-03-11T18:43:42.227Z,3.42
2019-03-11T18:46:03.918Z,3.57
2019-03-11T18:48:32.928Z,4.30
2019-03-11T18:51:10.459Z,4.00
2019-03-11T18:53:32.446Z,3.60
2019-03-11T18:56:01.225Z,2.90
2019-03-11T18:58:30.075Z,3.60
2019-03-11T19:00:58.818Z,2.70
2019-03-11T19:03:27.930Z,2.57
2019-03-11T19:05:56.696Z,2.98
2019-03-11T19:08:26.312Z,2.20
2019-03-11T19:10:55.527Z,2.47
2019-03-11T19:13:24.451Z,2.17
2019-03-11T19:15:53.372Z,2.03
2019-03-11T19:18:22.260Z,2.43
2019-03-11T19:20:51.335Z,1.40
2019-03-11T19:23:20.220Z,1.90
2019-03-11T19:25:50.652Z,2.10
2019-03-11T19:28:19.835Z,2.90
2019-03-11T19:30:48.837Z,2.57
2019-03-11T19:33:17.857Z,2.70
2019-03-11T19:35:47.274Z,1.90
2019-03-11T19:38:16.318Z,1.70
2019-03-11T19:40:45.240Z,2.30
2019-03-11T19:43:14.377Z,2.50
2019-03-11T19:45:43.447Z,3.40
2019-03-11T19:48:12.304Z,2.12
2019-03-11T19:50:41.558Z,2.60
2019-03-11T19:53:10.333Z,2.27
2019-03-11T19:55:39.396Z,2.50
2019-03-11T19:58:08.583Z,2.23
2019-03-11T20:00:37.528Z,2.17
2019-03-11T20:03:06.311Z,3.23
2019-03-11T20:05:35.372Z,3.13
2019-03-11T20:08:04.341Z,1.93
2019-03-11T20:10:34.178Z,5.58
2019-03-11T20:13:03.136Z,3.00
2019-03-11T20:15:32.098Z,2.47
2019-03-11T20:18:01.970Z,2.87
2019-03-11T20:20:31.188Z,1.87
2019-03-11T20:23:00.113Z,2.30
2019-03-11T20:25:29.101Z,1.87
2019-03-11T20:27:57.904Z,1.27
2019-03-11T20:30:27.210Z,2.27
2019-03-11T20:32:56.466Z,1.95
2019-03-11T20:35:25.616Z,2.17
2019-03-11T20:37:54.672Z,2.00
2019-03-11T20:40:23.633Z,2.97
2019-03-11T20:42:52.487Z,4.67
2019-03-11T20:45:21.533Z,2.00
2019-03-11T20:47:50.506Z,3.80
2019-03-11T20:50:19.429Z,2.63
2019-03-11T20:52:48.910Z,3.30
2019-03-11T20:55:18.079Z,3.83
2019-03-11T20:57:47.327Z,3.20
2019-03-11T21:00:18.343Z,3.07
2019-03-11T21:02:47.187Z,3.17
2019-03-11T21:05:17.040Z,5.10
2019-03-11T21:07:45.850Z,2.87
2019-03-11T21:10:16.449Z,5.10
2019-03-11T21:12:45.267Z,7.07
2019-03-11T21:15:14.515Z,3.40
2019-03-11T21:17:43.592Z,2.62
2019-03-11T21:20:17.313Z,2.60
2019-03-11T21:22:46.122Z,2.70
2019-03-11T21:25:16.163Z,2.80
2019-03-11T21:27:45.250Z,2.50
2019-03-11T21:30:19.083Z,3.23
2019-03-11T21:32:48.079Z,2.77
2019-03-11T21:35:17.321Z,3.40
2019-03-11T21:37:46.688Z,3.25
2019-03-11T21:40:16.475Z,2.70
2019-03-11T21:42:45.739Z,2.97
2019-03-11T21:45:14.793Z,2.93
2019-03-11T21:47:43.809Z,3.10
2019-03-11T21:50:17.318Z,2.83
2019-03-11T21:52:46.564Z,2.60
2019-03-11T21:55:16.089Z,2.50
2019-03-11T21:57:44.882Z,2.30
2019-03-11T22:00:15.994Z,2.57
2019-03-11T22:02:45.152Z,2.97
2019-03-11T22:05:14.248Z,2.50
2019-03-11T22:07:42.990Z,2.67
2019-03-11T22:10:12.491Z,2.40
2019-03-11T22:12:42.368Z,2.27
2019-03-11T22:15:11.665Z,2.67
2019-03-11T22:17:40.735Z,2.20
2019-03-11T22:20:11.499Z,2.50
2019-03-11T22:22:40.554Z,2.75
2019-03-11T22:25:10.668Z,2.50
2019-03-11T22:27:39.450Z,2.13
2019-03-11T22:30:11.910Z,2.60
2019-03-11T22:32:40.685Z,3.10
2019-03-11T22:35:13.007Z,3.10
2019-03-11T22:37:40.185Z,3.57
2019-03-11T22:40:09.434Z,3.60
2019-03-11T22:42:38.594Z,3.30
2019-03-11T22:45:08.815Z,3.50
2019-03-11T22:47:37.570Z,3.63
2019-03-11T22:50:06.565Z,3.23
2019-03-11T22:52:35.367Z,3.50
2019-03-11T22:55:04.466Z,2.95
2019-03-11T22:57:33.480Z,2.70
2019-03-11T23:00:02.842Z,3.87
2019-03-11T23:02:40.282Z,3.10
2019-03-11T23:05:02.062Z,3.07
2019-03-11T23:07:31.289Z,3.20
2019-03-11T23:10:02.227Z,3.23
2019-03-11T23:12:30.956Z,2.90
2019-03-11T23:14:59.710Z,4.10
2019-03-11T23:17:28.664Z,2.92
2019-03-11T23:19:59.443Z,3.43
2019-03-11T23:22:28.455Z,3.20
2019-03-11T23:24:57.184Z,2.97
2019-03-11T23:27:26.463Z,3.40
2019-03-11T23:29:55.191Z,3.10
2019-03-11T23:32:23.951Z,3.20
2019-03-11T23:34:52.682Z,3.10
2019-03-11T23:37:21.438Z,3.30
2019-03-11T23:39:50.855Z,3.03
2019-03-11T23:42:19.903Z,3.10
2019-03-11T23:44:48.746Z,3.53
2019-03-11T23:47:17.721Z,3.30
2019-03-11T23:49:46.557Z,3.03
2019-03-11T23:52:15.318Z,3.77
2019-03-11T23:54:44.345Z,3.90
2019-03-11T23:57:13.094Z,3.80
2019-03-11T23:59:42.085Z,3.80
